createdAt,value
2023-04-16T00:00:26.691Z,4.93
2023-04-16T00:02:53.625Z,4.88
2023-04-16T00:05:20.306Z,4.90
2023-04-16T00:07:51.683Z,5.57
2023-04-16T00:10:20.984Z,4.87
2023-04-16T00:12:47.641Z,5.07
2023-04-16T00:15:15.032Z,5.00
2023-04-16T00:17:41.769Z,4.88
2023-04-16T00:20:09.324Z,5.07
2023-04-16T00:22:35.953Z,5.13
2023-04-16T00:25:04.748Z,5.35
2023-04-16T00:27:31.323Z,5.05
2023-04-16T00:30:00.618Z,4.50
2023-04-16T00:32:27.291Z,4.70
2023-04-16T00:34:53.888Z,4.93
2023-04-16T00:37:20.451Z,4.88
2023-04-16T00:39:47.211Z,5.18
2023-04-16T00:42:13.752Z,5.15
2023-04-16T00:44:40.441Z,5.35
2023-04-16T00:47:07.742Z,5.53
2023-04-16T00:49:36.076Z,5.28
2023-04-16T00:52:03.382Z,5.30
2023-04-16T00:54:32.564Z,5.60
2023-04-16T00:56:59.841Z,5.40
2023-04-16T00:59:27.229Z,5.50
2023-04-16T01:01:53.991Z,5.20
2023-04-16T01:04:21.346Z,5.00
2023-04-16T01:06:48.130Z,5.55
2023-04-16T01:09:14.801Z,4.88
2023-04-16T01:11:42.829Z,5.63
2023-04-16T01:14:09.415Z,4.85
2023-04-16T01:16:36.002Z,5.78
2023-04-16T01:19:02.890Z,5.20
2023-04-16T01:21:29.529Z,5.22
2023-04-16T01:23:58.302Z,5.17
2023-04-16T01:26:24.920Z,6.00
2023-04-16T01:28:51.518Z,5.85
2023-04-16T01:31:18.153Z,6.18
2023-04-16T01:33:44.786Z,5.63
2023-04-16T01:36:11.367Z,5.27
2023-04-16T01:38:37.932Z,5.95
2023-04-16T01:41:04.606Z,6.07
2023-04-16T01:43:34.172Z,5.53
2023-04-16T01:46:27.298Z,5.90
2023-04-16T01:48:54.966Z,5.57
2023-04-16T01:51:22.174Z,5.85
2023-04-16T01:53:50.291Z,5.88
2023-04-16T01:56:17.171Z,5.97
2023-04-16T01:58:43.785Z,6.03
2023-04-16T02:01:10.533Z,5.77
2023-04-16T02:03:37.494Z,6.03
2023-04-16T02:06:04.254Z,5.72
2023-04-16T02:08:31.067Z,6.10
2023-04-16T02:10:58.158Z,6.43
2023-04-16T02:13:26.151Z,6.53
2023-04-16T02:15:53.178Z,5.68
2023-04-16T02:18:19.774Z,6.03
2023-04-16T02:20:48.049Z,5.65
2023-04-16T02:23:19.967Z,5.68
2023-04-16T02:25:47.428Z,6.10
2023-04-16T02:28:15.901Z,5.95
2023-04-16T02:30:43.002Z,5.47
2023-04-16T02:33:11.451Z,5.78
2023-04-16T02:35:39.858Z,6.43
2023-04-16T02:38:07.285Z,5.70
2023-04-16T02:40:34.137Z,5.57
2023-04-16T02:43:00.892Z,5.95
2023-04-16T02:45:31.630Z,5.47
2023-04-16T02:47:58.611Z,5.80
2023-04-16T02:50:27.827Z,5.77
2023-04-16T02:52:54.357Z,5.97
2023-04-16T02:55:21.100Z,6.00
2023-04-16T02:57:47.686Z,5.38
2023-04-16T03:00:14.498Z,6.10
2023-04-16T03:02:42.575Z,5.20
2023-04-16T03:05:09.645Z,5.80
2023-04-16T03:07:39.268Z,5.60
2023-04-16T03:10:09.624Z,5.55
2023-04-16T03:12:36.424Z,5.70
2023-04-16T03:15:05.423Z,5.50
2023-04-16T03:17:31.974Z,5.40
2023-04-16T03:19:58.734Z,5.70
2023-04-16T03:22:25.539Z,5.32
2023-04-16T03:24:52.085Z,5.78
2023-04-16T03:27:18.641Z,5.37
2023-04-16T03:29:45.354Z,5.13
2023-04-16T03:32:15.038Z,5.25
2023-04-16T03:34:41.682Z,5.72
2023-04-16T03:37:12.016Z,5.68
2023-04-16T03:39:38.828Z,4.80
2023-04-16T03:42:05.629Z,5.00
2023-04-16T03:44:32.226Z,5.35
2023-04-16T03:46:58.988Z,5.28
2023-04-16T03:49:25.889Z,5.22
2023-04-16T03:51:55.008Z,5.23
2023-04-16T03:54:22.861Z,5.53
2023-04-16T03:56:52.229Z,5.50
2023-04-16T03:59:18.811Z,5.65
2023-04-16T04:01:45.548Z,5.38
2023-04-16T04:04:12.237Z,4.87
2023-04-16T04:06:38.936Z,4.82
2023-04-16T04:09:05.802Z,5.13
2023-04-16T04:11:32.487Z,5.13
2023-04-16T04:13:59.056Z,4.75
2023-04-16T04:16:25.689Z,4.60
2023-04-16T04:18:52.863Z,4.90
2023-04-16T04:21:19.533Z,5.13
2023-04-16T04:23:46.146Z,5.10
2023-04-16T04:26:12.808Z,4.93
2023-04-16T04:28:39.454Z,5.10
2023-04-16T04:31:06.258Z,4.93
2023-04-16T04:33:32.824Z,4.85
2023-04-16T04:35:59.421Z,5.35
2023-04-16T04:38:26.049Z,5.35
2023-04-16T04:40:53.030Z,5.30
2023-04-16T04:43:22.537Z,4.40
2023-04-16T04:45:49.553Z,5.28
2023-04-16T04:48:16.448Z,5.30
2023-04-16T04:50:43.347Z,4.50
2023-04-16T04:53:10.721Z,4.50
2023-04-16T04:55:38.116Z,4.35
2023-04-16T04:58:06.308Z,4.30
2023-04-16T05:00:33.639Z,4.55
2023-04-16T05:03:09.690Z,4.10
2023-04-16T05:05:36.388Z,3.93
2023-04-16T05:08:05.339Z,3.65
2023-04-16T05:10:31.932Z,3.88
2023-04-16T05:12:58.624Z,4.20
2023-04-16T05:15:25.360Z,3.75
2023-04-16T05:17:51.941Z,3.80
2023-04-16T05:20:18.794Z,3.30
2023-04-16T05:22:45.351Z,3.72
2023-04-16T05:25:11.961Z,3.60
2023-04-16T05:27:38.593Z,3.35
2023-04-16T05:30:05.801Z,3.20
2023-04-16T05:32:32.394Z,3.92
2023-04-16T05:34:58.992Z,3.72
2023-04-16T05:37:25.518Z,3.40
2023-04-16T05:39:54.337Z,3.30
2023-04-16T05:42:25.888Z,3.30
2023-04-16T05:44:52.891Z,3.53
2023-04-16T05:47:19.471Z,3.40
2023-04-16T05:49:46.084Z,3.60
2023-04-16T05:52:12.823Z,3.72
2023-04-16T05:54:39.378Z,3.40
2023-04-16T05:57:05.938Z,3.40
2023-04-16T05:59:32.943Z,3.78
2023-04-16T06:01:59.520Z,3.85
2023-04-16T06:04:26.455Z,3.67
2023-04-16T06:06:52.985Z,3.80
2023-04-16T06:09:19.530Z,3.95
2023-04-16T06:11:46.116Z,3.70
2023-04-16T06:14:12.738Z,3.33
2023-04-16T06:16:39.469Z,3.95
2023-04-16T06:19:06.101Z,4.10
2023-04-16T06:21:32.874Z,4.07
2023-04-16T06:23:59.517Z,3.80
2023-04-16T06:26:26.765Z,3.63
2023-04-16T06:28:53.471Z,3.40
2023-04-16T06:31:24.935Z,3.80
2023-04-16T06:33:54.938Z,3.80
2023-04-16T06:36:21.529Z,3.92
2023-04-16T06:38:48.143Z,3.92
2023-04-16T06:41:15.165Z,3.90
2023-04-16T06:43:41.735Z,4.07
2023-04-16T06:46:08.348Z,3.70
2023-04-16T06:48:34.857Z,4.05
2023-04-16T06:51:01.931Z,4.35
2023-04-16T06:53:28.547Z,4.45
2023-04-16T06:55:55.092Z,3.70
2023-04-16T06:58:22.463Z,4.65
2023-04-16T07:00:49.111Z,4.13
2023-04-16T07:03:16.398Z,3.88
2023-04-16T07:05:43.120Z,4.32
2023-04-16T07:08:10.023Z,4.17
2023-04-16T07:10:36.639Z,4.95
2023-04-16T07:13:03.297Z,4.72
2023-04-16T07:15:29.946Z,4.40
2023-04-16T07:17:56.570Z,5.00
2023-04-16T07:20:23.246Z,4.93
2023-04-16T07:22:52.071Z,4.53
2023-04-16T07:25:20.917Z,4.90
2023-04-16T07:27:47.593Z,4.72
2023-04-16T07:30:14.162Z,4.55
2023-04-16T07:32:43.256Z,4.50
2023-04-16T07:35:10.026Z,4.78
2023-04-16T07:37:36.653Z,4.97
2023-04-16T07:40:04.500Z,4.68
2023-04-16T07:42:31.171Z,4.72
2023-04-16T07:44:57.702Z,4.57
2023-04-16T07:47:26.626Z,5.30
2023-04-16T07:49:55.544Z,4.93
2023-04-16T07:52:22.129Z,4.80
2023-04-16T07:54:48.753Z,5.20
2023-04-16T07:57:16.551Z,4.70
2023-04-16T07:59:43.118Z,4.75
2023-04-16T08:02:14.743Z,4.80
2023-04-16T08:04:45.236Z,4.97
2023-04-16T08:07:13.250Z,4.70
2023-04-16T08:09:53.733Z,5.00
2023-04-16T08:12:21.333Z,4.40
2023-04-16T08:14:48.172Z,4.82
2023-04-16T08:17:15.584Z,5.07
2023-04-16T08:19:44.852Z,4.97
2023-04-16T08:22:14.870Z,4.80
2023-04-16T08:24:41.561Z,4.68
2023-04-16T08:27:17.995Z,4.60
2023-04-16T08:29:46.149Z,4.72
2023-04-16T08:32:13.123Z,5.00
2023-04-16T08:34:39.733Z,4.60
2023-04-16T08:37:06.311Z,4.70
2023-04-16T08:39:35.446Z,5.13
2023-04-16T08:42:04.950Z,7.28
2023-04-16T08:44:41.870Z,4.95
2023-04-16T08:47:09.651Z,4.97
2023-04-16T08:49:39.712Z,5.57
2023-04-16T08:52:06.793Z,5.95
2023-04-16T08:55:10.073Z,6.60
2023-04-16T08:57:47.191Z,7.25
2023-04-16T09:00:14.506Z,6.97
2023-04-16T09:02:41.434Z,8.13
2023-04-16T09:05:14.725Z,10.05
2023-04-16T09:07:42.043Z,10.27
2023-04-16T09:10:12.275Z,12.07
2023-04-16T09:12:41.397Z,14.30
2023-04-16T09:15:10.361Z,13.98
2023-04-16T09:17:36.984Z,14.20
2023-04-16T09:20:11.023Z,11.73
2023-04-16T09:22:38.511Z,11.95
2023-04-16T09:25:07.835Z,11.37
2023-04-16T09:27:34.415Z,12.68
2023-04-16T09:30:01.092Z,12.13
2023-04-16T09:32:28.799Z,10.90
2023-04-16T09:35:00.663Z,10.73
2023-04-16T09:37:30.001Z,9.17
2023-04-16T09:40:04.143Z,8.43
2023-04-16T09:42:38.627Z,8.60
2023-04-16T09:45:06.148Z,7.07
2023-04-16T09:47:44.496Z,7.78
2023-04-16T09:50:18.285Z,8.00
2023-04-16T09:52:49.955Z,7.07
2023-04-16T09:55:16.810Z,6.80
2023-04-16T09:57:48.767Z,6.55
2023-04-16T10:00:19.200Z,6.75
2023-04-16T10:02:47.021Z,6.57
2023-04-16T10:05:18.745Z,6.38
2023-04-16T10:07:49.534Z,7.00
2023-04-16T10:10:16.331Z,5.97
2023-04-16T10:12:43.729Z,6.13
2023-04-16T10:15:10.830Z,5.53
2023-04-16T10:17:37.727Z,5.68
2023-04-16T10:20:07.174Z,6.30
2023-04-16T10:22:36.544Z,5.35
2023-04-16T10:25:04.022Z,5.55
2023-04-16T10:27:31.139Z,5.90
2023-04-16T10:29:58.285Z,5.28
2023-04-16T10:32:28.670Z,5.10
2023-04-16T10:34:56.180Z,5.03
2023-04-16T10:37:32.386Z,4.60
2023-04-16T10:40:00.165Z,4.53
2023-04-16T10:42:29.401Z,3.50
2023-04-16T10:45:00.214Z,4.10
2023-04-16T10:47:29.034Z,3.55
2023-04-16T10:49:55.705Z,3.30
2023-04-16T10:52:24.625Z,2.27
2023-04-16T10:54:52.790Z,2.90
2023-04-16T10:57:22.595Z,2.95
2023-04-16T10:59:51.846Z,2.97
2023-04-16T11:02:19.679Z,2.70
2023-04-16T11:04:49.992Z,2.00
2023-04-16T11:07:32.639Z,1.80
2023-04-16T11:10:06.659Z,1.85
2023-04-16T11:12:38.504Z,1.83
2023-04-16T11:15:06.440Z,1.88
2023-04-16T11:17:38.918Z,1.50
2023-04-16T11:20:19.577Z,2.17
2023-04-16T11:22:50.359Z,1.80
2023-04-16T11:25:23.532Z,1.77
2023-04-16T11:27:53.940Z,1.88
2023-04-16T11:30:34.124Z,2.10
2023-04-16T11:33:11.562Z,2.72
2023-04-16T11:35:39.621Z,3.50
2023-04-16T11:38:07.300Z,2.20
2023-04-16T11:40:34.268Z,2.65
2023-04-16T11:43:15.866Z,1.47
2023-04-16T11:46:12.892Z,2.08
2023-04-16T11:48:52.496Z,2.38
2023-04-16T11:51:20.693Z,1.85
2023-04-16T11:53:49.381Z,1.90
2023-04-16T11:56:17.648Z,1.70
2023-04-16T11:58:44.606Z,1.75
2023-04-16T12:01:11.522Z,2.03
2023-04-16T12:03:49.669Z,1.88
2023-04-16T12:06:16.517Z,1.35
2023-04-16T12:08:43.146Z,1.30
2023-04-16T12:11:09.717Z,0.70
2023-04-16T12:13:40.173Z,0.93
2023-04-16T12:16:18.374Z,1.77
2023-04-16T12:19:03.903Z,3.10
2023-04-16T12:21:47.588Z,1.00
2023-04-16T12:24:20.915Z,1.10
2023-04-16T12:26:56.029Z,1.30
2023-04-16T12:29:25.522Z,0.65
2023-04-16T12:31:53.060Z,1.08
2023-04-16T12:34:21.227Z,1.00
2023-04-16T12:36:49.915Z,0.95
2023-04-16T12:39:17.142Z,0.80
2023-04-16T12:41:44.106Z,0.57
2023-04-16T12:44:16.640Z,0.80
2023-04-16T12:46:44.080Z,1.37
2023-04-16T12:49:11.452Z,1.20
2023-04-16T12:51:39.105Z,1.02
2023-04-16T12:54:10.084Z,1.05
2023-04-16T12:56:36.704Z,0.80
2023-04-16T12:59:03.624Z,1.27
2023-04-16T13:01:30.907Z,1.27
2023-04-16T13:03:57.873Z,1.80
2023-04-16T13:06:24.866Z,0.90
2023-04-16T13:08:51.481Z,0.73
2023-04-16T13:11:19.164Z,2.20
2023-04-16T13:13:45.869Z,1.33
2023-04-16T13:16:14.747Z,1.23
2023-04-16T13:18:41.671Z,1.27
2023-04-16T13:21:08.579Z,0.80
2023-04-16T13:23:35.666Z,0.87
2023-04-16T13:26:02.276Z,0.52
2023-04-16T13:28:28.946Z,0.93
2023-04-16T13:30:55.711Z,1.08
2023-04-16T13:33:25.956Z,0.73
2023-04-16T13:35:52.622Z,0.40
2023-04-16T13:38:19.290Z,0.80
2023-04-16T13:40:46.010Z,0.70
2023-04-16T13:43:13.854Z,10.43
2023-04-16T13:45:40.654Z,0.80
2023-04-16T13:48:07.323Z,1.47
2023-04-16T13:50:35.205Z,0.73
2023-04-16T13:53:04.057Z,1.00
2023-04-16T13:55:31.865Z,0.60
2023-04-16T13:57:58.511Z,0.80
2023-04-16T14:00:26.537Z,0.70
2023-04-16T14:02:53.860Z,0.95
2023-04-16T14:05:20.690Z,1.15
2023-04-16T14:07:47.246Z,0.80
2023-04-16T14:10:16.277Z,0.73
2023-04-16T14:12:44.375Z,1.53
2023-04-16T14:15:11.873Z,0.75
2023-04-16T14:17:38.642Z,0.63
2023-04-16T14:20:06.780Z,0.73
2023-04-16T14:22:33.481Z,1.00
2023-04-16T14:25:01.008Z,0.83
2023-04-16T14:27:28.834Z,1.25
2023-04-16T14:29:55.437Z,1.27
2023-04-16T14:32:22.296Z,0.98
2023-04-16T14:34:48.912Z,1.02
2023-04-16T14:37:17.561Z,1.33
2023-04-16T14:39:44.700Z,1.58
2023-04-16T14:42:11.324Z,0.95
2023-04-16T14:44:40.783Z,0.60
2023-04-16T14:47:08.585Z,0.95
2023-04-16T14:49:35.353Z,0.70
2023-04-16T14:52:05.847Z,0.70
2023-04-16T14:54:33.637Z,0.70
2023-04-16T14:57:00.531Z,1.15
2023-04-16T14:59:27.134Z,0.90
2023-04-16T15:01:58.814Z,0.70
2023-04-16T15:04:26.136Z,0.80
2023-04-16T15:06:58.912Z,1.05
2023-04-16T15:09:28.766Z,1.60
2023-04-16T15:11:55.641Z,0.77
2023-04-16T15:14:22.291Z,1.40
2023-04-16T15:16:51.709Z,1.52
2023-04-16T15:19:18.470Z,1.05
2023-04-16T15:21:46.461Z,1.10
2023-04-16T15:24:17.107Z,1.05
2023-04-16T15:26:43.796Z,0.80
2023-04-16T15:29:10.445Z,1.48
2023-04-16T15:31:37.073Z,1.63
2023-04-16T15:34:03.800Z,3.88
2023-04-16T15:36:30.371Z,3.30
2023-04-16T15:38:56.940Z,10.70
2023-04-16T15:41:25.828Z,2.85
2023-04-16T15:43:52.487Z,1.70
2023-04-16T15:46:19.162Z,2.83
2023-04-16T15:48:45.792Z,1.48
2023-04-16T15:51:12.558Z,2.67
2023-04-16T15:53:39.245Z,2.25
2023-04-16T15:56:05.970Z,1.38
2023-04-16T15:58:32.782Z,1.75
2023-04-16T16:00:59.389Z,2.40
2023-04-16T16:03:26.490Z,1.63
2023-04-16T16:05:53.275Z,1.20
2023-04-16T16:08:19.888Z,1.45
2023-04-16T16:10:46.851Z,1.00
2023-04-16T16:13:16.098Z,0.75
2023-04-16T16:15:42.726Z,1.00
2023-04-16T16:18:09.373Z,1.67
2023-04-16T16:20:40.546Z,1.00
2023-04-16T16:23:07.448Z,1.50
2023-04-16T16:25:36.268Z,1.00
2023-04-16T16:28:06.334Z,3.63
2023-04-16T16:30:33.327Z,1.10
2023-04-16T16:32:59.948Z,1.63
2023-04-16T16:35:29.131Z,1.15
2023-04-16T16:37:57.287Z,1.40
2023-04-16T16:40:26.112Z,1.20
2023-04-16T16:42:52.868Z,1.15
2023-04-16T16:45:19.565Z,1.40
2023-04-16T16:47:48.858Z,1.90
2023-04-16T16:50:15.571Z,2.25
2023-04-16T16:52:42.176Z,4.33
2023-04-16T16:55:11.139Z,5.07
2023-04-16T16:57:38.828Z,6.60
2023-04-16T17:00:14.476Z,2.35
2023-04-16T17:02:43.844Z,2.70
2023-04-16T17:05:11.045Z,1.50
2023-04-16T17:07:37.889Z,1.05
2023-04-16T17:10:06.964Z,1.42
2023-04-16T17:12:33.822Z,1.30
2023-04-16T17:15:00.434Z,0.85
2023-04-16T17:17:27.859Z,0.90
2023-04-16T17:19:56.656Z,0.65
2023-04-16T17:22:23.275Z,1.05
2023-04-16T17:24:49.873Z,1.52
2023-04-16T17:27:16.487Z,1.90
2023-04-16T17:29:45.630Z,1.40
2023-04-16T17:32:12.230Z,1.00
2023-04-16T17:34:38.840Z,1.50
2023-04-16T17:37:05.465Z,1.08
2023-04-16T17:39:32.127Z,0.98
2023-04-16T17:42:01.156Z,0.60
2023-04-16T17:44:28.176Z,0.95
2023-04-16T17:46:54.741Z,1.15
2023-04-16T17:49:21.392Z,0.82
2023-04-16T17:51:48.977Z,1.00
2023-04-16T17:54:15.588Z,0.60
2023-04-16T17:56:42.163Z,1.20
2023-04-16T17:59:08.742Z,1.00
2023-04-16T18:01:35.598Z,1.10
2023-04-16T18:04:02.579Z,0.90
2023-04-16T18:06:29.355Z,0.70
2023-04-16T18:08:55.902Z,1.08
2023-04-16T18:11:22.717Z,0.85
2023-04-16T18:13:49.623Z,0.88
2023-04-16T18:16:16.987Z,0.73
2023-04-16T18:18:44.335Z,0.83
2023-04-16T18:21:11.242Z,0.60
2023-04-16T18:23:37.806Z,0.80
2023-04-16T18:26:04.523Z,0.70
2023-04-16T18:28:31.179Z,0.80
2023-04-16T18:30:59.135Z,0.60
2023-04-16T18:33:52.676Z,0.90
2023-04-16T18:36:12.570Z,1.15
2023-04-16T18:38:49.496Z,0.80
2023-04-16T18:41:24.141Z,1.00
2023-04-16T18:43:51.060Z,0.60
2023-04-16T18:46:17.866Z,0.70
2023-04-16T18:48:45.236Z,0.60
2023-04-16T18:51:12.929Z,0.88
2023-04-16T18:53:42.425Z,0.88
2023-04-16T18:56:09.724Z,0.90
2023-04-16T18:58:36.695Z,1.02
2023-04-16T19:01:03.792Z,0.98
2023-04-16T19:03:31.079Z,1.00
2023-04-16T19:06:02.471Z,1.02
2023-04-16T19:08:29.445Z,1.00
2023-04-16T19:10:56.072Z,0.88
2023-04-16T19:13:22.688Z,0.98
2023-04-16T19:15:49.290Z,0.85
2023-04-16T19:18:15.919Z,0.90
2023-04-16T19:20:42.535Z,0.80
2023-04-16T19:23:09.292Z,1.02
2023-04-16T19:25:38.098Z,1.10
2023-04-16T19:28:04.864Z,0.80
2023-04-16T19:30:31.620Z,1.10
2023-04-16T19:33:00.519Z,0.90
2023-04-16T19:35:27.362Z,0.88
2023-04-16T19:37:56.271Z,0.80
2023-04-16T19:40:22.869Z,0.93
2023-04-16T19:42:49.620Z,1.00
2023-04-16T19:45:17.696Z,1.00
2023-04-16T19:47:44.888Z,0.88
2023-04-16T19:50:11.799Z,0.80
2023-04-16T19:52:40.879Z,0.90
2023-04-16T19:55:08.031Z,0.80
2023-04-16T19:57:34.612Z,1.10
2023-04-16T20:00:01.336Z,1.23
2023-04-16T20:02:28.025Z,0.95
2023-04-16T20:04:54.732Z,1.20
2023-04-16T20:07:21.536Z,1.00
2023-04-16T20:09:48.128Z,1.10
2023-04-16T20:12:14.876Z,0.95
2023-04-16T20:14:43.911Z,1.00
2023-04-16T20:17:10.608Z,1.10
2023-04-16T20:19:40.855Z,1.15
2023-04-16T20:22:07.422Z,1.30
2023-04-16T20:24:38.556Z,1.00
2023-04-16T20:27:05.397Z,0.80
2023-04-16T20:29:31.930Z,0.93
2023-04-16T20:32:01.837Z,1.00
2023-04-16T20:34:28.752Z,1.00
2023-04-16T20:36:55.331Z,1.10
2023-04-16T20:39:22.741Z,1.10
2023-04-16T20:41:56.695Z,0.93
2023-04-16T20:44:32.996Z,1.20
2023-04-16T20:46:59.819Z,0.90
2023-04-16T20:49:26.397Z,1.05
2023-04-16T20:51:55.244Z,1.10
2023-04-16T20:54:21.861Z,0.88
2023-04-16T20:56:50.744Z,0.98
2023-04-16T20:59:19.694Z,0.80
2023-04-16T21:01:49.336Z,1.30
2023-04-16T21:04:16.761Z,1.15
2023-04-16T21:06:43.571Z,1.00
2023-04-16T21:09:10.853Z,1.35
2023-04-16T21:11:40.541Z,1.00
2023-04-16T21:14:09.185Z,1.02
2023-04-16T21:16:35.946Z,1.23
2023-04-16T21:19:02.988Z,1.20
2023-04-16T21:21:29.797Z,1.23
2023-04-16T21:23:56.413Z,0.70
2023-04-16T21:26:23.003Z,1.10
2023-04-16T21:28:49.756Z,0.77
2023-04-16T21:31:16.749Z,1.27
2023-04-16T21:33:43.416Z,1.20
2023-04-16T21:36:10.575Z,1.30
2023-04-16T21:38:37.173Z,1.15
2023-04-16T21:41:06.424Z,1.08
2023-04-16T21:43:36.206Z,1.10
2023-04-16T21:46:03.067Z,1.10
2023-04-16T21:48:29.756Z,0.80
2023-04-16T21:50:58.078Z,0.98
2023-04-16T21:53:32.050Z,1.10
2023-04-16T21:55:59.078Z,1.25
2023-04-16T21:58:28.067Z,0.75
2023-04-16T22:00:54.797Z,1.10
2023-04-16T22:03:30.427Z,1.17
2023-04-16T22:06:03.333Z,1.10
2023-04-16T22:08:32.424Z,1.20
2023-04-16T22:11:02.850Z,1.30
2023-04-16T22:13:32.598Z,1.10
2023-04-16T22:16:02.579Z,0.85
2023-04-16T22:18:33.090Z,1.10
2023-04-16T22:21:00.339Z,1.00
2023-04-16T22:23:27.212Z,1.60
2023-04-16T22:25:55.090Z,0.80
2023-04-16T22:28:21.752Z,0.80
2023-04-16T22:30:48.464Z,1.45
2023-04-16T22:33:17.621Z,1.33
2023-04-16T22:35:44.290Z,1.42
2023-04-16T22:38:11.089Z,2.03
2023-04-16T22:40:37.755Z,2.25
2023-04-16T22:43:04.733Z,1.77
2023-04-16T22:45:31.435Z,2.00
2023-04-16T22:47:58.047Z,1.73
2023-04-16T22:50:24.676Z,2.23
2023-04-16T22:52:51.279Z,2.33
2023-04-16T22:55:17.974Z,2.50
2023-04-16T22:57:47.674Z,2.13
2023-04-16T23:00:16.605Z,2.35
2023-04-16T23:02:46.605Z,2.20
2023-04-16T23:05:15.943Z,2.50
2023-04-16T23:07:42.536Z,2.03
2023-04-16T23:10:09.184Z,2.00
2023-04-16T23:12:39.253Z,2.33
2023-04-16T23:15:06.735Z,2.00
2023-04-16T23:17:35.100Z,1.85
2023-04-16T23:20:02.255Z,2.50
2023-04-16T23:22:28.886Z,1.75
2023-04-16T23:24:55.465Z,1.88
2023-04-16T23:27:24.252Z,2.80
2023-04-16T23:29:50.788Z,1.95
2023-04-16T23:32:17.451Z,1.88
2023-04-16T23:34:44.098Z,2.15
2023-04-16T23:37:10.674Z,1.90
2023-04-16T23:39:37.228Z,2.10
2023-04-16T23:42:03.926Z,2.00
2023-04-16T23:44:30.682Z,2.78
2023-04-16T23:46:57.483Z,2.08
2023-04-16T23:49:24.461Z,2.45
2023-04-16T23:51:51.018Z,2.33
2023-04-16T23:54:17.702Z,2.80
2023-04-16T23:56:44.375Z,2.28
2023-04-16T23:59:11.368Z,2.15
